createdAt,value
2023-04-29T00:02:32.079Z,8.55
2023-04-29T00:05:07.739Z,8.57
2023-04-29T00:07:38.835Z,8.65
2023-04-29T00:10:32.112Z,8.58
2023-04-29T00:13:00.445Z,8.76
2023-04-29T00:15:29.007Z,8.48
2023-04-29T00:17:57.225Z,8.73
2023-04-29T00:20:25.523Z,8.78
2023-04-29T00:22:55.043Z,8.64
2023-04-29T00:25:23.249Z,8.78
2023-04-29T00:27:51.526Z,8.80
2023-04-29T00:30:19.998Z,8.76
2023-04-29T00:32:48.234Z,8.75
2023-04-29T00:35:16.804Z,8.85
2023-04-29T00:37:45.008Z,8.81
2023-04-29T00:40:15.139Z,8.86
2023-04-29T00:42:43.576Z,8.97
2023-04-29T00:45:13.159Z,8.92
2023-04-29T00:47:42.084Z,9.00
2023-04-29T00:50:11.273Z,9.22
2023-04-29T00:52:39.969Z,9.23
2023-04-29T00:55:09.944Z,9.19
2023-04-29T00:57:39.776Z,9.21
2023-04-29T01:00:10.709Z,9.27
2023-04-29T01:02:39.567Z,9.18
2023-04-29T01:05:08.371Z,9.30
2023-04-29T01:07:49.332Z,9.29
2023-04-29T01:10:25.873Z,9.22
2023-04-29T01:13:05.636Z,9.37
2023-04-29T01:15:41.583Z,9.26
2023-04-29T01:18:17.639Z,9.30
2023-04-29T01:20:46.245Z,9.43
2023-04-29T01:23:14.723Z,9.59
2023-04-29T01:25:45.221Z,9.57
2023-04-29T01:28:35.969Z,9.60
2023-04-29T01:31:11.438Z,9.49
2023-04-29T01:33:50.611Z,9.47
2023-04-29T01:36:31.627Z,9.41
2023-04-29T01:39:09.863Z,9.65
2023-04-29T01:41:45.272Z,9.68
2023-04-29T01:44:25.685Z,9.68
2023-04-29T01:46:55.263Z,9.56
2023-04-29T01:49:29.824Z,9.61
2023-04-29T01:51:58.196Z,9.89
2023-04-29T01:54:27.065Z,9.74
2023-04-29T01:56:58.582Z,9.81
2023-04-29T01:59:37.512Z,9.74
2023-04-29T02:02:37.898Z,9.73
2023-04-29T02:05:16.332Z,9.94
2023-04-29T02:08:02.543Z,9.93
2023-04-29T02:10:32.666Z,9.83
2023-04-29T02:13:15.389Z,9.79
2023-04-29T02:15:44.164Z,9.87
2023-04-29T02:18:12.504Z,9.97
2023-04-29T02:20:42.167Z,9.86
2023-04-29T02:23:10.644Z,9.99
2023-04-29T02:25:38.921Z,9.95
2023-04-29T02:28:07.251Z,9.98
2023-04-29T02:30:36.850Z,9.99
2023-04-29T02:33:08.304Z,9.78
2023-04-29T02:35:37.184Z,10.05
2023-04-29T02:38:05.537Z,10.11
2023-04-29T02:40:33.830Z,9.89
2023-04-29T02:43:02.223Z,10.10
2023-04-29T02:45:30.643Z,10.02
2023-04-29T02:48:01.316Z,10.01
2023-04-29T02:50:29.765Z,10.11
2023-04-29T02:52:58.203Z,10.16
2023-04-29T02:55:26.927Z,10.07
2023-04-29T02:57:57.737Z,10.10
2023-04-29T03:00:25.954Z,10.11
2023-04-29T03:02:54.266Z,10.08
2023-04-29T03:05:24.283Z,10.09
2023-04-29T03:07:52.528Z,10.18
2023-04-29T03:10:21.114Z,10.16
2023-04-29T03:12:49.605Z,10.20
2023-04-29T03:15:18.117Z,10.31
2023-04-29T03:17:46.825Z,10.28
2023-04-29T03:20:15.398Z,10.30
2023-04-29T03:22:45.008Z,10.38
2023-04-29T03:25:13.440Z,10.26
2023-04-29T03:27:41.911Z,10.26
2023-04-29T03:30:12.092Z,10.39
2023-04-29T03:32:46.866Z,10.22
2023-04-29T03:35:15.958Z,10.40
2023-04-29T03:38:05.940Z,10.31
2023-04-29T03:40:35.917Z,10.32
2023-04-29T03:43:04.221Z,10.27
2023-04-29T03:45:33.066Z,10.23
2023-04-29T03:48:02.766Z,10.28
2023-04-29T03:50:31.969Z,10.34
2023-04-29T03:53:00.247Z,10.40
2023-04-29T03:55:32.729Z,10.36
2023-04-29T03:58:01.199Z,10.30
2023-04-29T04:00:31.299Z,10.32
2023-04-29T04:03:04.428Z,10.35
2023-04-29T04:05:34.093Z,10.26
2023-04-29T04:08:08.712Z,10.39
2023-04-29T04:10:53.662Z,10.45
2023-04-29T04:13:33.806Z,10.36
2023-04-29T04:16:02.117Z,10.35
2023-04-29T04:18:32.383Z,10.54
2023-04-29T04:21:07.660Z,10.45
2023-04-29T04:23:38.058Z,10.43
2023-04-29T04:26:08.186Z,10.52
2023-04-29T04:29:02.524Z,10.60
2023-04-29T04:31:57.050Z,10.53
2023-04-29T04:34:26.365Z,10.56
2023-04-29T04:36:56.649Z,10.63
2023-04-29T04:39:24.965Z,10.70
2023-04-29T04:41:56.259Z,10.73
2023-04-29T04:44:24.726Z,10.75
2023-04-29T04:47:03.095Z,10.76
2023-04-29T04:50:00.579Z,10.75
2023-04-29T04:52:28.795Z,10.86
2023-04-29T04:55:05.032Z,10.83
2023-04-29T04:57:38.162Z,10.78
2023-04-29T05:00:08.756Z,10.83
2023-04-29T05:02:37.911Z,10.78
2023-04-29T05:05:07.050Z,10.92
2023-04-29T05:07:37.755Z,10.91
2023-04-29T05:10:08.617Z,10.96
2023-04-29T05:12:44.856Z,10.75
2023-04-29T05:15:15.052Z,11.04
2023-04-29T05:17:44.728Z,10.97
2023-04-29T05:20:13.999Z,10.94
2023-04-29T05:22:42.290Z,10.58
2023-04-29T05:25:11.447Z,10.99
2023-04-29T05:27:40.496Z,11.09
2023-04-29T05:30:14.489Z,11.11
2023-04-29T05:32:42.755Z,11.26
2023-04-29T05:35:14.757Z,11.19
2023-04-29T05:37:43.123Z,11.33
2023-04-29T05:40:26.256Z,11.27
2023-04-29T05:43:01.832Z,11.26
2023-04-29T05:45:31.448Z,11.14
2023-04-29T05:47:59.669Z,11.32
2023-04-29T05:50:27.944Z,11.16
2023-04-29T05:52:56.565Z,11.08
2023-04-29T05:55:26.737Z,11.16
2023-04-29T05:57:55.099Z,11.25
2023-04-29T06:00:23.682Z,11.45
2023-04-29T06:02:59.347Z,11.49
2023-04-29T06:05:57.149Z,11.38
2023-04-29T06:08:44.012Z,11.41
2023-04-29T06:11:20.143Z,11.39
2023-04-29T06:13:48.707Z,11.52
2023-04-29T06:16:17.302Z,11.40
2023-04-29T06:18:46.845Z,11.36
2023-04-29T06:21:16.331Z,11.42
2023-04-29T06:23:45.275Z,11.46
2023-04-29T06:26:19.086Z,11.42
2023-04-29T06:28:47.506Z,11.47
2023-04-29T06:31:16.657Z,11.29
2023-04-29T06:33:46.638Z,11.65
2023-04-29T06:36:14.920Z,11.58
2023-04-29T06:39:01.711Z,11.75
2023-04-29T06:41:49.810Z,11.67
2023-04-29T06:44:36.761Z,11.76
2023-04-29T06:47:40.690Z,11.72
2023-04-29T06:50:15.124Z,11.63
2023-04-29T06:52:45.489Z,11.56
2023-04-29T06:55:13.730Z,11.44
2023-04-29T06:57:43.952Z,11.43
2023-04-29T07:00:12.949Z,11.33
2023-04-29T07:02:41.215Z,11.55
2023-04-29T07:05:11.349Z,11.60
2023-04-29T07:07:41.053Z,11.49
2023-04-29T07:10:10.492Z,11.57
2023-04-29T07:12:38.702Z,11.61
2023-04-29T07:15:08.587Z,11.40
2023-04-29T07:17:36.812Z,11.43
2023-04-29T07:20:06.789Z,11.46
2023-04-29T07:22:35.006Z,10.98
2023-04-29T07:25:06.313Z,11.32
2023-04-29T07:27:35.955Z,11.35
2023-04-29T07:30:05.169Z,11.31
2023-04-29T07:32:33.752Z,11.34
2023-04-29T07:35:05.580Z,11.17
2023-04-29T07:37:33.834Z,11.09
2023-04-29T07:40:02.104Z,11.19
2023-04-29T07:42:31.726Z,11.17
2023-04-29T07:45:00.773Z,11.07
2023-04-29T07:47:29.542Z,11.07
2023-04-29T07:49:58.363Z,11.07
2023-04-29T07:52:26.722Z,11.03
2023-04-29T07:54:56.331Z,11.11
2023-04-29T07:57:24.800Z,11.17
2023-04-29T07:59:54.978Z,11.15
2023-04-29T08:02:23.269Z,11.27
2023-04-29T08:04:54.726Z,11.25
2023-04-29T08:07:45.434Z,11.27
2023-04-29T08:10:14.854Z,11.27
2023-04-29T08:12:48.398Z,11.26
2023-04-29T08:15:18.616Z,11.24
2023-04-29T08:17:47.050Z,11.16
2023-04-29T08:20:15.460Z,11.17
2023-04-29T08:22:43.710Z,11.36
2023-04-29T08:25:12.515Z,11.46
2023-04-29T08:27:48.205Z,11.13
2023-04-29T08:30:18.205Z,11.41
2023-04-29T08:32:46.453Z,11.41
2023-04-29T08:35:14.705Z,11.29
2023-04-29T08:37:43.122Z,11.38
2023-04-29T08:40:37.558Z,11.25
2023-04-29T08:43:06.311Z,11.34
2023-04-29T08:45:36.427Z,11.40
2023-04-29T08:48:05.125Z,11.23
2023-04-29T08:50:34.372Z,11.10
2023-04-29T08:53:02.715Z,11.17
2023-04-29T08:55:31.085Z,11.15
2023-04-29T08:57:59.193Z,11.14
2023-04-29T09:00:27.548Z,10.22
2023-04-29T09:02:59.481Z,11.16
2023-04-29T09:05:29.019Z,11.09
2023-04-29T09:08:03.100Z,11.07
2023-04-29T09:10:31.797Z,11.04
2023-04-29T09:12:59.994Z,11.15
2023-04-29T09:15:28.938Z,11.25
2023-04-29T09:17:58.513Z,11.22
2023-04-29T09:20:33.130Z,11.34
2023-04-29T09:23:04.119Z,11.36
2023-04-29T09:25:32.611Z,11.49
2023-04-29T09:28:15.775Z,11.50
2023-04-29T09:30:48.219Z,11.54
2023-04-29T09:33:17.778Z,11.59
2023-04-29T09:35:47.079Z,11.48
2023-04-29T09:38:16.983Z,11.48
2023-04-29T09:40:57.389Z,11.62
2023-04-29T09:43:27.686Z,11.70
2023-04-29T09:45:56.994Z,11.71
2023-04-29T09:48:33.778Z,11.85
2023-04-29T09:51:04.137Z,11.79
2023-04-29T09:53:33.411Z,11.67
2023-04-29T09:56:03.722Z,11.73
2023-04-29T09:58:38.319Z,11.80
2023-04-29T10:01:07.723Z,11.83
2023-04-29T10:03:39.327Z,11.78
2023-04-29T10:06:09.242Z,11.81
2023-04-29T10:08:46.447Z,11.79
2023-04-29T10:11:15.903Z,11.85
2023-04-29T10:13:44.976Z,11.59
2023-04-29T10:16:30.296Z,11.91
2023-04-29T10:19:06.853Z,11.83
2023-04-29T10:21:35.331Z,11.83
2023-04-29T10:24:05.149Z,11.62
2023-04-29T10:26:37.776Z,11.60
2023-04-29T10:29:10.215Z,11.63
2023-04-29T10:31:42.276Z,11.73
2023-04-29T10:34:14.006Z,11.91
2023-04-29T10:36:42.317Z,11.82
2023-04-29T10:39:25.409Z,11.84
2023-04-29T10:41:54.167Z,11.84
2023-04-29T10:44:24.057Z,11.98
2023-04-29T10:47:22.408Z,12.00
2023-04-29T10:50:08.909Z,11.99
2023-04-29T10:52:56.433Z,12.44
2023-04-29T10:55:25.760Z,12.41
2023-04-29T10:57:56.448Z,13.04
2023-04-29T11:00:27.911Z,13.06
2023-04-29T11:02:56.642Z,13.01
2023-04-29T11:05:36.145Z,12.23
2023-04-29T11:08:12.639Z,12.88
2023-04-29T11:10:43.898Z,12.86
2023-04-29T11:13:22.789Z,12.69
2023-04-29T11:15:53.016Z,12.49
2023-04-29T11:18:21.406Z,12.64
2023-04-29T11:21:15.910Z,12.65
2023-04-29T11:23:45.471Z,12.80
2023-04-29T11:26:13.666Z,12.80
2023-04-29T11:28:44.540Z,12.39
2023-04-29T11:31:12.779Z,13.04
2023-04-29T11:33:41.081Z,12.53
2023-04-29T11:36:10.919Z,12.41
2023-04-29T11:38:42.364Z,12.16
2023-04-29T11:41:12.615Z,12.19
2023-04-29T11:43:40.851Z,12.19
2023-04-29T11:46:14.259Z,12.16
2023-04-29T11:48:48.802Z,12.14
2023-04-29T11:51:19.011Z,12.09
2023-04-29T11:53:48.731Z,10.64
2023-04-29T11:56:17.052Z,11.82
2023-04-29T11:58:45.671Z,11.75
2023-04-29T12:01:14.107Z,11.91
2023-04-29T12:03:45.295Z,11.98
2023-04-29T12:06:15.866Z,11.99
2023-04-29T12:08:45.374Z,11.98
2023-04-29T12:11:15.772Z,11.81
2023-04-29T12:13:44.049Z,11.99
2023-04-29T12:16:12.821Z,12.00
2023-04-29T12:18:41.219Z,12.06
2023-04-29T12:21:09.496Z,12.07
2023-04-29T12:23:38.289Z,12.06
2023-04-29T12:26:06.825Z,12.07
2023-04-29T12:28:36.398Z,12.24
2023-04-29T12:31:05.082Z,12.20
2023-04-29T12:33:33.269Z,12.15
2023-04-29T12:36:02.068Z,12.19
2023-04-29T12:38:32.251Z,12.47
2023-04-29T12:41:01.855Z,12.44
2023-04-29T12:43:31.350Z,12.40
2023-04-29T12:46:04.507Z,12.45
2023-04-29T12:48:34.176Z,12.53
2023-04-29T12:51:03.272Z,12.69
2023-04-29T12:53:31.990Z,12.65
2023-04-29T12:56:00.734Z,12.62
2023-04-29T12:58:30.605Z,12.68
2023-04-29T13:00:59.325Z,12.64
2023-04-29T13:03:29.143Z,12.64
2023-04-29T13:05:57.477Z,12.74
2023-04-29T13:08:25.697Z,12.85
2023-04-29T13:10:53.874Z,12.71
2023-04-29T13:13:22.258Z,12.83
2023-04-29T13:15:50.427Z,12.87
2023-04-29T13:18:18.712Z,12.87
2023-04-29T13:20:48.287Z,12.94
2023-04-29T13:23:16.540Z,12.81
2023-04-29T13:25:44.761Z,12.86
2023-04-29T13:28:13.241Z,12.85
2023-04-29T13:30:41.443Z,12.44
2023-04-29T13:33:12.656Z,12.92
2023-04-29T13:35:42.107Z,12.80
2023-04-29T13:38:11.910Z,12.60
2023-04-29T13:40:46.060Z,12.53
2023-04-29T13:43:20.918Z,12.59
2023-04-29T13:45:57.475Z,12.63
2023-04-29T13:48:54.823Z,12.64
2023-04-29T13:51:57.840Z,12.56
2023-04-29T14:02:21.467Z,12.63
2023-04-29T14:04:50.815Z,12.54
2023-04-29T14:07:19.416Z,12.51
2023-04-29T14:09:49.827Z,12.47
2023-04-29T14:12:18.289Z,12.38
2023-04-29T14:14:46.461Z,12.38
2023-04-29T14:17:14.737Z,12.33
2023-04-29T14:19:42.997Z,12.37
2023-04-29T14:22:11.222Z,12.26
2023-04-29T14:24:40.358Z,12.09
2023-04-29T14:27:09.921Z,12.10
2023-04-29T14:29:38.073Z,12.02
2023-04-29T14:32:07.382Z,12.02
2023-04-29T14:34:35.608Z,12.01
2023-04-29T14:37:03.802Z,11.94
2023-04-29T14:39:32.123Z,12.06
2023-04-29T14:42:02.262Z,12.02
2023-04-29T14:44:33.335Z,12.09
2023-04-29T14:47:01.526Z,12.12
2023-04-29T14:49:31.505Z,12.10
2023-04-29T14:52:00.065Z,12.11
2023-04-29T14:54:29.149Z,12.13
2023-04-29T14:56:57.337Z,12.23
2023-04-29T14:59:25.991Z,12.20
2023-04-29T15:01:56.425Z,12.17
2023-04-29T15:04:27.612Z,12.10
2023-04-29T15:06:58.194Z,12.11
2023-04-29T15:09:26.775Z,12.17
2023-04-29T15:11:54.923Z,12.10
2023-04-29T15:14:23.127Z,12.15
2023-04-29T15:16:51.545Z,12.03
2023-04-29T15:19:21.354Z,12.08
2023-04-29T15:21:49.540Z,12.01
2023-04-29T15:24:18.415Z,12.16
2023-04-29T15:26:47.261Z,12.18
2023-04-29T15:29:15.547Z,12.16
2023-04-29T15:31:43.826Z,12.24
2023-04-29T15:34:12.130Z,12.23
2023-04-29T15:36:42.864Z,12.13
2023-04-29T15:39:12.235Z,12.29
2023-04-29T15:41:40.682Z,12.20
2023-04-29T15:44:08.874Z,12.30
2023-04-29T15:46:37.109Z,12.36
2023-04-29T15:49:06.575Z,12.30
2023-04-29T15:51:34.751Z,12.22
2023-04-29T15:54:05.012Z,12.18
2023-04-29T15:56:33.471Z,12.23
2023-04-29T15:59:01.638Z,12.14
2023-04-29T16:01:36.230Z,12.22
2023-04-29T16:04:31.309Z,12.12
2023-04-29T16:07:01.476Z,12.13
2023-04-29T16:09:31.040Z,12.17
2023-04-29T16:11:59.517Z,12.21
2023-04-29T16:17:19.994Z,12.18
2023-04-29T16:19:48.608Z,12.23
2023-04-29T16:22:16.775Z,12.19
2023-04-29T16:24:49.210Z,12.23
2023-04-29T16:27:18.171Z,12.30
2023-04-29T16:29:46.644Z,12.18
2023-04-29T16:32:14.818Z,12.21
2023-04-29T16:34:42.946Z,12.14
2023-04-29T16:37:12.589Z,11.47
2023-04-29T16:39:41.616Z,12.16
2023-04-29T16:42:11.253Z,12.17
2023-04-29T16:44:39.379Z,12.04
2023-04-29T16:47:07.974Z,12.00
2023-04-29T16:49:36.257Z,12.21
2023-04-29T16:52:05.691Z,12.09
2023-04-29T16:54:33.887Z,12.21
2023-04-29T16:57:02.284Z,12.09
2023-04-29T16:59:32.120Z,12.13
2023-04-29T17:02:02.709Z,12.20
2023-04-29T17:04:32.239Z,12.20
2023-04-29T17:07:01.425Z,12.24
2023-04-29T17:09:29.672Z,12.21
2023-04-29T17:11:58.072Z,12.15
2023-04-29T17:14:26.336Z,12.09
2023-04-29T17:16:56.208Z,12.04
2023-04-29T17:19:24.379Z,12.23
2023-04-29T17:21:53.374Z,12.18
2023-04-29T17:24:21.559Z,12.08
2023-04-29T17:26:49.747Z,12.02
2023-04-29T17:29:17.989Z,12.08
2023-04-29T17:31:47.879Z,11.85
2023-04-29T17:34:23.817Z,12.17
2023-04-29T17:36:52.565Z,11.89
2023-04-29T17:39:20.981Z,11.95
2023-04-29T17:41:49.237Z,12.00
2023-04-29T17:44:17.421Z,11.97
2023-04-29T17:46:45.603Z,11.97
2023-04-29T17:49:13.901Z,11.91
2023-04-29T17:51:43.505Z,11.77
2023-04-29T17:54:11.739Z,11.76
2023-04-29T17:56:39.923Z,11.58
2023-04-29T17:59:08.805Z,11.69
2023-04-29T18:01:37.824Z,11.60
2023-04-29T18:04:07.482Z,11.41
2023-04-29T18:06:46.737Z,11.46
2023-04-29T18:09:15.484Z,11.50
2023-04-29T18:11:44.008Z,11.37
2023-04-29T18:14:12.292Z,11.42
2023-04-29T18:16:40.538Z,11.41
2023-04-29T18:19:08.977Z,11.33
2023-04-29T18:21:37.138Z,11.30
2023-04-29T18:24:07.804Z,11.23
2023-04-29T18:26:36.038Z,11.19
2023-04-29T18:29:04.436Z,11.23
2023-04-29T18:31:32.641Z,10.73
2023-04-29T18:34:00.858Z,11.13
2023-04-29T18:36:29.237Z,11.14
2023-04-29T18:38:57.418Z,10.99
2023-04-29T18:41:27.280Z,11.08
2023-04-29T18:43:55.417Z,10.91
2023-04-29T18:46:24.415Z,11.02
2023-04-29T18:48:52.630Z,11.09
2023-04-29T18:51:22.286Z,11.01
2023-04-29T18:53:50.488Z,11.07
2023-04-29T18:56:18.681Z,11.65
2023-04-29T18:58:48.330Z,10.99
2023-04-29T19:01:16.891Z,11.05
2023-04-29T19:03:45.060Z,10.97
2023-04-29T19:06:13.260Z,11.08
2023-04-29T19:08:41.513Z,11.02
2023-04-29T19:11:09.722Z,11.08
2023-04-29T19:13:37.928Z,11.15
2023-04-29T19:16:07.688Z,11.13
2023-04-29T19:18:36.136Z,11.04
2023-04-29T19:21:04.594Z,11.05
2023-04-29T19:23:32.804Z,11.08
2023-04-29T19:26:01.045Z,11.04
2023-04-29T19:28:29.280Z,10.90
2023-04-29T19:30:57.490Z,10.74
2023-04-29T19:33:27.177Z,10.11
2023-04-29T19:35:55.954Z,10.72
2023-04-29T19:38:24.372Z,10.59
2023-04-29T19:40:55.295Z,10.60
2023-04-29T19:43:23.690Z,10.71
2023-04-29T19:45:52.065Z,10.66
2023-04-29T19:48:20.268Z,10.76
2023-04-29T19:50:59.533Z,10.70
2023-04-29T19:53:27.917Z,10.23
2023-04-29T19:55:56.237Z,10.73
2023-04-29T19:58:24.605Z,10.63
2023-04-29T20:00:52.817Z,10.55
2023-04-29T20:03:21.699Z,10.59
2023-04-29T20:05:49.985Z,10.22
2023-04-29T20:08:19.994Z,10.48
2023-04-29T20:10:54.448Z,10.47
2023-04-29T20:13:22.724Z,10.46
2023-04-29T20:15:50.953Z,10.55
2023-04-29T20:18:19.885Z,10.62
2023-04-29T20:20:48.458Z,10.46
2023-04-29T20:23:16.602Z,10.35
2023-04-29T20:25:46.198Z,10.33
2023-04-29T20:28:14.603Z,10.05
2023-04-29T20:30:42.718Z,10.33
2023-04-29T20:33:10.967Z,10.30
2023-04-29T20:35:39.155Z,10.29
2023-04-29T20:38:07.908Z,10.21
2023-04-29T20:40:36.722Z,10.18
2023-04-29T20:43:06.266Z,10.21
2023-04-29T20:45:37.273Z,10.23
2023-04-29T20:48:06.551Z,10.23
2023-04-29T20:50:34.727Z,10.07
2023-04-29T20:53:03.348Z,10.18
2023-04-29T20:55:31.567Z,10.09
2023-04-29T20:57:59.757Z,10.12
2023-04-29T21:00:29.295Z,10.15
2023-04-29T21:02:57.520Z,10.62
2023-04-29T21:05:26.016Z,10.12
2023-04-29T21:07:54.193Z,10.11
2023-04-29T21:10:22.711Z,10.08
2023-04-29T21:12:50.977Z,10.15
2023-04-29T21:15:19.402Z,10.08
2023-04-29T21:17:48.985Z,10.00
2023-04-29T21:20:17.648Z,10.14
2023-04-29T21:22:46.027Z,10.01
2023-04-29T21:25:14.281Z,10.10
2023-04-29T21:27:42.479Z,9.92
2023-04-29T21:30:11.858Z,9.92
2023-04-29T21:32:40.111Z,10.09
2023-04-29T21:35:11.106Z,10.09
2023-04-29T21:37:39.400Z,10.06
2023-04-29T21:40:09.543Z,10.10
2023-04-29T21:42:38.166Z,9.98
2023-04-29T21:45:08.453Z,9.97
2023-04-29T21:47:36.691Z,10.01
2023-04-29T21:50:05.530Z,10.05
2023-04-29T21:52:35.510Z,10.03
2023-04-29T21:55:08.957Z,9.94
2023-04-29T21:57:44.322Z,9.98
2023-04-29T22:00:28.709Z,10.18
2023-04-29T22:02:57.043Z,9.97
2023-04-29T22:05:25.708Z,9.92
2023-04-29T22:07:57.056Z,10.19
2023-04-29T22:10:25.750Z,10.54
2023-04-29T22:16:11.645Z,9.84
2023-04-29T22:18:39.893Z,9.86
2023-04-29T22:21:08.542Z,9.98
2023-04-29T22:23:38.583Z,9.94
2023-04-29T22:26:06.867Z,9.99
2023-04-29T22:28:35.344Z,9.90
2023-04-29T22:31:03.503Z,9.87
2023-04-29T22:33:31.635Z,9.88
2023-04-29T22:35:59.801Z,9.92
2023-04-29T22:38:28.326Z,9.86
2023-04-29T22:40:57.853Z,9.99
2023-04-29T22:43:26.005Z,9.98
2023-04-29T22:45:54.837Z,9.96
2023-04-29T22:48:25.789Z,9.89
2023-04-29T22:50:58.673Z,9.97
2023-04-29T22:53:27.118Z,9.92
2023-04-29T22:55:58.485Z,9.42
2023-04-29T22:58:27.589Z,9.98
2023-04-29T23:00:58.162Z,9.87
2023-04-29T23:03:27.447Z,9.90
2023-04-29T23:05:59.446Z,9.86
2023-04-29T23:08:27.898Z,9.93
2023-04-29T23:10:57.398Z,9.88
2023-04-29T23:13:25.630Z,9.80
2023-04-29T23:15:57.817Z,9.86
2023-04-29T23:18:26.185Z,9.93
2023-04-29T23:20:55.246Z,9.94
2023-04-29T23:23:23.511Z,9.84
2023-04-29T23:25:51.806Z,9.90
2023-04-29T23:28:21.957Z,9.88
2023-04-29T23:30:50.142Z,9.86
2023-04-29T23:33:18.314Z,9.85
2023-04-29T23:35:50.625Z,9.78
2023-04-29T23:38:19.602Z,9.90
2023-04-29T23:40:53.933Z,9.73
2023-04-29T23:43:23.486Z,9.77
2023-04-29T23:45:52.965Z,9.75
2023-04-29T23:48:21.329Z,9.82
2023-04-29T23:50:49.478Z,9.65
2023-04-29T23:53:18.429Z,9.73
2023-04-29T23:55:46.588Z,9.66
2023-04-29T23:58:14.856Z,9.58
